createdAt,value
2019-03-21T00:04:03.016Z,102039.80
2019-03-21T00:09:11.714Z,102041.78
2019-03-21T00:14:27.172Z,102032.06
2019-03-21T00:19:30.631Z,102034.63
2019-03-21T00:24:34.100Z,102021.95
2019-03-21T00:29:37.572Z,102018.97
2019-03-21T00:34:41.027Z,102025.90
2019-03-21T00:39:44.499Z,102019.55
2019-03-21T00:44:47.962Z,102017.58
2019-03-21T00:49:51.423Z,102012.96
2019-03-21T00:54:54.901Z,102022.08
2019-03-21T00:59:58.357Z,102017.70
2019-03-21T01:05:01.815Z,102014.34
2019-03-21T01:10:17.064Z,102007.20
2019-03-21T01:15:20.526Z,102002.82
2019-03-21T01:20:23.980Z,102000.05
2019-03-21T01:25:33.712Z,102000.27
2019-03-21T01:30:37.171Z,101991.72
2019-03-21T01:35:41.465Z,101991.51
2019-03-21T01:40:50.552Z,101988.36
2019-03-21T01:45:54.043Z,101975.45
2019-03-21T01:50:57.472Z,101976.47
2019-03-21T01:56:00.925Z,101976.25
2019-03-21T02:01:04.626Z,101966.36
2019-03-21T02:06:08.079Z,101961.40
2019-03-21T02:11:11.605Z,101961.40
2019-03-21T02:16:15.060Z,101955.85
2019-03-21T02:21:18.515Z,101951.48
2019-03-21T02:26:21.975Z,101952.86
2019-03-21T02:31:25.442Z,101953.45
2019-03-21T02:36:28.905Z,101952.86
2019-03-21T02:41:32.361Z,101954.25
2019-03-21T02:46:35.825Z,101958.20
2019-03-21T02:51:39.285Z,101951.48
2019-03-21T02:56:42.741Z,101957.39
2019-03-21T03:01:46.206Z,101953.23
2019-03-21T03:06:49.657Z,101947.91
2019-03-21T03:11:53.129Z,101946.89
2019-03-21T03:16:56.587Z,101953.61
2019-03-21T03:22:00.051Z,101955.80
2019-03-21T03:27:03.517Z,101954.20
2019-03-21T03:32:06.972Z,101956.97
2019-03-21T03:37:10.430Z,101961.92
2019-03-21T03:42:14.180Z,101966.45
2019-03-21T03:47:17.607Z,101970.62
2019-03-21T03:52:21.068Z,101965.07
2019-03-21T03:57:24.594Z,101975.58
2019-03-21T04:02:28.053Z,101976.16
2019-03-21T04:07:31.521Z,101977.34
2019-03-21T04:12:35.141Z,101983.09
2019-03-21T04:17:38.597Z,101985.07
2019-03-21T04:22:42.821Z,101981.50
2019-03-21T04:27:46.253Z,101982.89
2019-03-21T04:32:49.713Z,101984.27
2019-03-21T04:37:53.165Z,101985.47
2019-03-21T04:42:56.621Z,101977.95
2019-03-21T04:48:00.078Z,101981.31
2019-03-21T04:53:03.532Z,101979.95
2019-03-21T04:58:07.666Z,101982.58
2019-03-21T05:03:14.018Z,101977.24
2019-03-21T05:08:17.506Z,101993.08
2019-03-21T05:13:20.960Z,101989.30
2019-03-21T05:18:27.542Z,101998.20
2019-03-21T05:23:31.088Z,102004.33
2019-03-21T05:28:34.557Z,102008.70
2019-03-21T05:33:38.028Z,102006.89
2019-03-21T05:38:41.502Z,102010.67
2019-03-21T05:43:50.967Z,102014.62
2019-03-21T05:48:54.442Z,102015.20
2019-03-21T05:53:57.918Z,102022.14
2019-03-21T05:59:01.412Z,102034.63
2019-03-21T06:04:04.869Z,102029.87
2019-03-21T06:09:11.997Z,102036.81
2019-03-21T06:14:15.465Z,102050.68
2019-03-21T06:19:22.000Z,102053.23
2019-03-21T06:24:52.908Z,102054.25
2019-03-21T06:29:56.931Z,102048.49
2019-03-21T06:35:00.402Z,102048.70
2019-03-21T06:40:04.696Z,102060.39
2019-03-21T06:45:08.127Z,102073.45
2019-03-21T06:50:11.608Z,102075.27
2019-03-21T06:55:15.080Z,102077.83
2019-03-21T07:00:18.553Z,102069.51
2019-03-21T07:05:22.034Z,102068.34
2019-03-21T07:10:25.502Z,102068.13
2019-03-21T07:15:28.974Z,102071.55
2019-03-21T07:20:32.444Z,102080.21
2019-03-21T07:25:35.919Z,102079.50
2019-03-21T07:30:39.394Z,102079.32
2019-03-21T07:35:42.867Z,102087.16
2019-03-21T07:40:46.343Z,102085.61
2019-03-21T07:45:49.820Z,102079.91
2019-03-21T07:50:53.294Z,102082.28
2019-03-21T07:55:56.777Z,102083.11
2019-03-21T08:01:00.249Z,102075.98
2019-03-21T08:06:03.741Z,102076.60
2019-03-21T08:11:07.227Z,102079.70
2019-03-21T08:16:10.724Z,102081.71
2019-03-21T08:21:14.203Z,102082.15
2019-03-21T08:26:17.678Z,102089.77
2019-03-21T08:31:21.157Z,102092.03
2019-03-21T08:36:24.625Z,102088.60
2019-03-21T08:41:28.110Z,102086.97
2019-03-21T08:46:31.581Z,102083.44
2019-03-21T08:51:35.057Z,102087.78
2019-03-21T08:56:38.534Z,102090.64
2019-03-21T09:01:42.069Z,102092.97
2019-03-21T09:06:45.544Z,102083.83
2019-03-21T09:11:49.017Z,102083.71
2019-03-21T09:16:52.489Z,102082.52
2019-03-21T09:21:55.962Z,102087.68
2019-03-21T09:26:59.433Z,102086.88
2019-03-21T09:32:02.921Z,102077.20
2019-03-21T09:37:06.399Z,102073.63
2019-03-21T09:42:09.863Z,102082.28
2019-03-21T09:47:13.336Z,102066.58
2019-03-21T09:52:16.817Z,102070.89
2019-03-21T09:57:20.290Z,102065.26
2019-03-21T10:02:23.761Z,102071.87
2019-03-21T10:07:27.246Z,102067.98
2019-03-21T10:12:30.714Z,102073.02
2019-03-21T10:17:34.185Z,102069.15
2019-03-21T10:22:37.662Z,102066.02
2019-03-21T10:27:41.147Z,102062.08
2019-03-21T10:32:44.617Z,102058.19
2019-03-21T10:37:48.089Z,102056.52
2019-03-21T10:42:51.575Z,102051.66
2019-03-21T10:47:55.043Z,102045.80
2019-03-21T10:52:59.062Z,102047.66
2019-03-21T10:58:02.602Z,102053.67
2019-03-21T11:03:06.615Z,102042.08
2019-03-21T11:08:10.096Z,102029.86
2019-03-21T11:13:13.568Z,102031.89
2019-03-21T11:18:17.913Z,102020.31
2019-03-21T11:23:21.394Z,102020.31
2019-03-21T11:28:24.866Z,102013.20
2019-03-21T11:33:28.343Z,102005.53
2019-03-21T11:38:31.834Z,101992.90
2019-03-21T11:43:35.302Z,101989.94
2019-03-21T11:48:38.775Z,101991.17
2019-03-21T11:53:42.250Z,101984.09
2019-03-21T11:58:45.740Z,101974.78
2019-03-21T12:03:49.236Z,101972.65
2019-03-21T12:08:52.709Z,101975.86
2019-03-21T12:13:56.164Z,101958.44
2019-03-21T12:18:59.620Z,101953.69
2019-03-21T12:24:03.083Z,101949.62
2019-03-21T12:29:06.545Z,101949.62
2019-03-21T12:34:10.001Z,101940.30
2019-03-21T12:39:13.455Z,101930.22
2019-03-21T12:44:16.918Z,101933.00
2019-03-21T12:49:20.378Z,101928.68
2019-03-21T12:54:23.838Z,101921.95
2019-03-21T12:59:27.312Z,101916.80
2019-03-21T13:04:30.766Z,101903.52
2019-03-21T13:09:34.225Z,101895.25
2019-03-21T13:14:37.695Z,101892.47
2019-03-21T13:19:41.149Z,101889.54
2019-03-21T13:24:44.607Z,101883.41
2019-03-21T13:29:48.068Z,101881.83
2019-03-21T13:34:51.535Z,101880.64
2019-03-21T13:39:54.994Z,101872.53
2019-03-21T13:44:58.485Z,101860.84
2019-03-21T13:50:01.957Z,101854.13
2019-03-21T13:55:09.944Z,101845.42
2019-03-21T14:00:16.310Z,101849.98
2019-03-21T14:05:19.774Z,101843.63
2019-03-21T14:10:23.235Z,101836.91
2019-03-21T14:15:26.692Z,101832.95
2019-03-21T14:20:30.156Z,101829.42
2019-03-21T14:25:33.611Z,101824.08
2019-03-21T14:30:37.069Z,101818.53
2019-03-21T14:35:40.529Z,101816.09
2019-03-21T14:40:43.989Z,101806.37
2019-03-21T14:45:47.457Z,101804.99
2019-03-21T14:50:50.909Z,101800.83
2019-03-21T14:55:54.365Z,101802.47
2019-03-21T15:00:57.830Z,101805.10
2019-03-21T15:06:01.282Z,101801.98
2019-03-21T15:11:16.341Z,101802.26
2019-03-21T15:16:10.086Z,101785.38
2019-03-21T15:21:13.541Z,101793.80
2019-03-21T15:26:16.997Z,101796.20
2019-03-21T15:31:20.452Z,101798.68
2019-03-21T15:36:23.915Z,101799.69
2019-03-21T15:41:27.369Z,101792.74
2019-03-21T15:46:30.828Z,101786.39
2019-03-21T15:51:34.286Z,101786.02
2019-03-21T15:56:37.740Z,101789.03
2019-03-21T16:06:51.216Z,101777.95
2019-03-21T16:11:54.678Z,101773.61
2019-03-21T16:16:58.137Z,101783.75
2019-03-21T16:22:01.597Z,101787.36
2019-03-21T16:27:05.055Z,101774.05
2019-03-21T16:32:08.510Z,101772.66
2019-03-21T16:37:12.174Z,101770.09
2019-03-21T16:42:15.707Z,101776.27
2019-03-21T16:47:19.159Z,101769.50
2019-03-21T16:52:22.631Z,101771.69
2019-03-21T16:57:26.091Z,101774.08
2019-03-21T17:02:29.558Z,101772.31
2019-03-21T17:07:33.073Z,101765.95
2019-03-21T17:12:36.535Z,101770.72
2019-03-21T17:17:39.990Z,101775.47
2019-03-21T17:22:43.452Z,101769.70
2019-03-21T17:27:46.913Z,101778.87
2019-03-21T17:32:50.377Z,101781.85
2019-03-21T17:37:53.937Z,101786.46
2019-03-21T17:47:59.789Z,101787.25
2019-03-21T17:53:03.245Z,101786.48
2019-03-21T17:58:06.735Z,101790.64
2019-03-21T18:08:13.755Z,101794.81
2019-03-21T18:13:17.213Z,101800.20
2019-03-21T18:23:30.433Z,101814.48
2019-03-21T18:28:33.898Z,101823.27
2019-03-21T18:33:37.370Z,101828.39
2019-03-21T18:38:40.824Z,101825.78
2019-03-21T18:43:44.280Z,101827.95
2019-03-21T18:48:47.741Z,101830.31
2019-03-21T18:53:51.198Z,101834.66
2019-03-21T18:58:54.647Z,101832.47
2019-03-21T19:03:58.106Z,101835.84
2019-03-21T19:09:01.569Z,101831.05
2019-03-21T19:14:05.014Z,101827.86
2019-03-21T19:19:08.470Z,101835.19
2019-03-21T19:24:11.928Z,101829.63
2019-03-21T19:29:15.389Z,101823.45
2019-03-21T19:34:18.840Z,101829.01
2019-03-21T19:39:22.305Z,101830.57
2019-03-21T19:44:25.759Z,101826.58
2019-03-21T19:49:29.213Z,101828.17
2019-03-21T19:54:32.669Z,101832.55
2019-03-21T19:59:36.206Z,101826.78
2019-03-21T20:04:39.673Z,101831.55
2019-03-21T20:09:43.129Z,101834.73
2019-03-21T20:14:46.591Z,101845.43
2019-03-21T20:19:50.050Z,101831.51
2019-03-21T20:24:53.504Z,101839.45
2019-03-21T20:29:56.964Z,101836.84
2019-03-21T20:35:00.423Z,101835.05
2019-03-21T20:40:06.420Z,101831.67
2019-03-21T20:45:12.317Z,101842.57
2019-03-21T20:50:16.218Z,101837.19
2019-03-21T20:55:19.672Z,101836.59
2019-03-21T21:00:24.474Z,101835.20
2019-03-21T21:05:27.940Z,101828.64
2019-03-21T21:10:31.404Z,101821.84
2019-03-21T21:15:34.864Z,101813.89
2019-03-21T21:20:38.334Z,101820.83
2019-03-21T21:25:41.773Z,101827.97
2019-03-21T21:30:45.227Z,101829.74
2019-03-21T21:35:48.728Z,101836.69
2019-03-21T21:40:52.776Z,101839.84
2019-03-21T21:45:56.214Z,101842.03
2019-03-21T21:50:59.668Z,101842.78
2019-03-21T21:56:03.131Z,101840.01
2019-03-21T22:01:06.598Z,101841.61
2019-03-21T22:06:10.052Z,101837.64
2019-03-21T22:11:13.512Z,101827.34
2019-03-21T22:16:16.964Z,101834.87
2019-03-21T22:21:20.427Z,101837.44
2019-03-21T22:26:29.662Z,101846.36
2019-03-21T22:31:29.073Z,101848.70
2019-03-21T22:36:32.546Z,101849.09
2019-03-21T22:41:35.998Z,101847.11
2019-03-21T22:46:39.462Z,101847.11
2019-03-21T22:51:42.921Z,101853.25
2019-03-21T22:56:46.386Z,101852.25
2019-03-21T23:01:49.840Z,101851.06
2019-03-21T23:06:53.299Z,101845.12
2019-03-21T23:11:56.752Z,101836.80
2019-03-21T23:17:00.209Z,101835.99
2019-03-21T23:22:03.702Z,101829.86
2019-03-21T23:27:07.165Z,101831.03
2019-03-21T23:32:10.646Z,101839.57
2019-03-21T23:37:14.144Z,101839.73
2019-03-21T23:42:17.622Z,101843.73
2019-03-21T23:47:21.089Z,101829.81
2019-03-21T23:52:24.560Z,101825.86
2019-03-21T23:57:28.036Z,101826.83
